Fryeburg, Maine
Current Conditions -  °F | °C
As of 1:54 PM on Friday 31 Oct 2014 (Local Time) from KIZG Reporting Station
Overcast Overcast  
Wind Chill: 49°   Ceiling: 5500
Heat Index: 49°   Visibility: 10mi
Dew Point: 31°   Wind: 0mph
Humidity: 50%   Direction: NA
Pressure: 30"   Gusts: NA
Location:  44.02°N, 70.98°W
Report Text: KIZG 311754Z AUTO 00000KT 10SM OVC055 09/M01 A3000 RMK AO2 SLP165 T00941006 10106 20000 56018
Loading
Personal Weather Stations






























Interactive Weather Map New forecast layout! Learn more

10-Day Weather Forecast

Advertisements
Track Severe Weather on mobile